Aérodrome :
LOGIN :

S'inscrire | Disclaimer

   EN    FR    IT 

 










Légende :    VFR   VFR Marginal   IFR   IFR Intensif   IFR Très Intensif
Visi : 
Plafond : 
>= 8 km
>= 3000ft
5 à 8 km
1000 à 3000 ft
1500m à 5 km
500 à 1000 ft
800 à 1500m
200 à 500 ft
< 800m
< 200 ft
Symboles :   Orages  Brouillard  Fortes neiges  Fortes précipitations  Vent > 20 kt
SIGMETs :   Divers  Orages  Givrage  Turbulence  Onde Orograph.  Cendres Volcan.






- Altitude de l'aérodrome : 580 ft


LFOA - Avord

DERNIER METAR :
  • 101830Z AUTO 15004KT 9999 BKN042 BKN048 OVC054 13/11 Q1009

METARs EXPIRÉS :
  • 101800Z AUTO 16004KT 9999 -RA OVC040 13/11 Q1009
  • 101730Z AUTO 18004KT 9999 -RA OVC043 14/10 Q1009
  • 101700Z AUTO 20006KT 9999 BKN045 OVC058 14/10 Q1009
  • 101630Z AUTO 22008KT 9999 FEW025 BKN048 BKN056 14/10 Q1010
  • 101600Z AUTO 24008KT 9999 FEW024 BKN076 OVC094 14/10 Q1010

TAF TAF LFOA
Valide du 10 à 09h jusqu'au 11 à 09h UTC


100800Z 1009/1109 15007KT 9999 BKN050 TX16/1014Z TN06/1107Z
BECMG 1009/1011 21010KT
TEMPO 1011/1018 28010G20KT 4000 SHRA BKN010 BKN020CB
BECMG 1018/1020 15005KT
TEMPO 1020/1109 4000 SHRA BKN005 BKN040CB
PROB40
TEMPO 1022/1102 VRB15G30KT 2000 TSRAGS



MET'MAP, la Météo Aéronautique d'un coup d'oeil ! - Copyright ORBIFLY Décembre 2007 - Disclaimer

ORBIFLY MET'MAP TEAM :

Programmation & Développement : Alexandra Zaïnal
Sur une idée originale de : Baudouin d'Aumeries
Assistance à la programmation : Marc-Olivier Méhu
Soutien technique & logistique : Manuel Goepfert

Contact : metmap@orbifly.com




SOURCES & CREDITS :

   NOAA